sensor_id;sensor_type;location;lat;lon;timestamp;pressure;altitude;pressure_sealevel;temperature;humidity
6464;BME280;3265;42.694;23.282;2023-07-30T00:00:27;71259.25;;;-143.21;57.00
6464;BME280;3265;42.694;23.282;2023-07-30T00:02:53;71261.22;;;-143.21;56.99
6464;BME280;3265;42.694;23.282;2023-07-30T00:05:20;71263.22;;;-143.21;57.08
6464;BME280;3265;42.694;23.282;2023-07-30T00:07:49;71257.25;;;-143.21;57.29
6464;BME280;3265;42.694;23.282;2023-07-30T00:10:15;71243.38;;;-143.21;57.11
6464;BME280;3265;42.694;23.282;2023-07-30T00:12:42;71225.53;;;-143.21;56.90
6464;BME280;3265;42.694;23.282;2023-07-30T00:15:09;71225.53;;;-143.21;56.70
6464;BME280;3265;42.694;23.282;2023-07-30T00:17:38;71225.53;;;-143.21;56.32
6464;BME280;3265;42.694;23.282;2023-07-30T00:20:06;71241.41;;;-143.21;56.77
6464;BME280;3265;42.694;23.282;2023-07-30T00:22:33;71247.34;;;-143.21;57.27
6464;BME280;3265;42.694;23.282;2023-07-30T00:25:01;71253.28;;;-143.21;57.38
6464;BME280;3265;42.694;23.282;2023-07-30T00:27:28;71255.28;;;-143.21;57.45
6464;BME280;3265;42.694;23.282;2023-07-30T00:29:56;71255.28;;;-143.21;57.54
6464;BME280;3265;42.694;23.282;2023-07-30T00:32:23;71253.28;;;-143.21;57.42
6464;BME280;3265;42.694;23.282;2023-07-30T00:34:50;71259.25;;;-143.21;57.50
6464;BME280;3265;42.694;23.282;2023-07-30T00:37:16;71253.28;;;-143.21;57.59
6464;BME280;3265;42.694;23.282;2023-07-30T00:39:43;71249.34;;;-143.21;57.79
6464;BME280;3265;42.694;23.282;2023-07-30T00:42:11;71261.22;;;-143.21;57.90
6464;BME280;3265;42.694;23.282;2023-07-30T00:44:38;71261.22;;;-143.21;57.91
6464;BME280;3265;42.694;23.282;2023-07-30T00:47:05;71259.25;;;-143.21;57.82
6464;BME280;3265;42.694;23.282;2023-07-30T00:49:32;71253.28;;;-143.21;57.69
6464;BME280;3265;42.694;23.282;2023-07-30T00:51:59;71247.34;;;-143.21;57.58
6464;BME280;3265;42.694;23.282;2023-07-30T00:54:27;71241.41;;;-143.21;57.40
6464;BME280;3265;42.694;23.282;2023-07-30T00:56:54;71253.28;;;-143.21;57.97
6464;BME280;3265;42.694;23.282;2023-07-30T00:59:22;71269.16;;;-143.21;58.23
6464;BME280;3265;42.694;23.282;2023-07-30T01:01:51;71285.03;;;-143.21;58.67
6464;BME280;3265;42.694;23.282;2023-07-30T01:04:18;71287.00;;;-143.21;58.68
6464;BME280;3265;42.694;23.282;2023-07-30T01:06:45;71287.00;;;-143.21;58.47
6464;BME280;3265;42.694;23.282;2023-07-30T01:09:12;71294.94;;;-143.21;58.58
6464;BME280;3265;42.694;23.282;2023-07-30T01:11:40;71302.84;;;-143.21;58.92
6464;BME280;3265;42.694;23.282;2023-07-30T01:14:09;71312.78;;;-143.21;58.89
6464;BME280;3265;42.694;23.282;2023-07-30T01:16:37;71312.78;;;-143.21;58.99
6464;BME280;3265;42.694;23.282;2023-07-30T01:19:05;71316.75;;;-143.21;59.12
6464;BME280;3265;42.694;23.282;2023-07-30T01:21:34;71320.69;;;-143.21;59.15
6464;BME280;3265;42.694;23.282;2023-07-30T01:24:01;71322.69;;;-143.21;59.09
6464;BME280;3265;42.694;23.282;2023-07-30T01:26:42;71314.75;;;-143.21;58.83
6464;BME280;3265;42.694;23.282;2023-07-30T01:29:13;71302.84;;;-143.21;57.95
6464;BME280;3265;42.694;23.282;2023-07-30T01:31:43;71294.94;;;-143.21;57.32
6464;BME280;3265;42.694;23.282;2023-07-30T01:34:11;71308.81;;;-143.21;57.51
6464;BME280;3265;42.694;23.282;2023-07-30T01:36:40;71320.69;;;-143.21;57.42
6464;BME280;3265;42.694;23.282;2023-07-30T01:39:08;71320.69;;;-143.21;57.60
6464;BME280;3265;42.694;23.282;2023-07-30T01:41:35;71324.66;;;-143.21;57.48
6464;BME280;3265;42.694;23.282;2023-07-30T01:44:03;71334.59;;;-143.21;57.59
6464;BME280;3265;42.694;23.282;2023-07-30T01:46:30;71330.63;;;-143.21;57.67
6464;BME280;3265;42.694;23.282;2023-07-30T01:48:57;71330.63;;;-143.21;57.82
6464;BME280;3265;42.694;23.282;2023-07-30T01:51:24;71338.53;;;-143.21;58.18
6464;BME280;3265;42.694;23.282;2023-07-30T01:53:52;71356.38;;;-143.21;58.58
6464;BME280;3265;42.694;23.282;2023-07-30T01:56:18;71374.22;;;-143.21;58.95
6464;BME280;3265;42.694;23.282;2023-07-30T01:58:45;71384.16;;;-143.21;59.34
6464;BME280;3265;42.694;23.282;2023-07-30T02:01:14;71396.03;;;-143.21;59.45
6464;BME280;3265;42.694;23.282;2023-07-30T02:03:41;71390.09;;;-143.21;59.41
6464;BME280;3265;42.694;23.282;2023-07-30T02:06:07;71390.09;;;-143.21;59.07
6464;BME280;3265;42.694;23.282;2023-07-30T02:08:36;71409.91;;;-143.21;59.52
6464;BME280;3265;42.694;23.282;2023-07-30T02:11:04;71413.88;;;-143.21;59.55
6464;BME280;3265;42.694;23.282;2023-07-30T02:13:31;71419.84;;;-143.21;60.05
6464;BME280;3265;42.694;23.282;2023-07-30T02:15:58;71427.75;;;-143.21;60.21
6464;BME280;3265;42.694;23.282;2023-07-30T02:18:24;71427.75;;;-143.21;59.92
6464;BME280;3265;42.694;23.282;2023-07-30T02:20:51;71425.78;;;-143.21;60.37
6464;BME280;3265;42.694;23.282;2023-07-30T02:23:18;71427.75;;;-143.21;60.10
6464;BME280;3265;42.694;23.282;2023-07-30T02:25:45;71429.75;;;-143.21;60.41
6464;BME280;3265;42.694;23.282;2023-07-30T02:28:13;71431.72;;;-143.21;60.74
6464;BME280;3265;42.694;23.282;2023-07-30T02:30:40;71439.66;;;-143.21;60.66
6464;BME280;3265;42.694;23.282;2023-07-30T02:33:06;71445.59;;;-143.21;60.71
6464;BME280;3265;42.694;23.282;2023-07-30T02:35:33;71443.63;;;-143.21;61.10
6464;BME280;3265;42.694;23.282;2023-07-30T02:38:00;71439.66;;;-143.21;61.20
6464;BME280;3265;42.694;23.282;2023-07-30T02:40:27;71443.63;;;-143.21;61.24
6464;BME280;3265;42.694;23.282;2023-07-30T02:42:53;71433.72;;;-143.21;61.13
6464;BME280;3265;42.694;23.282;2023-07-30T02:45:22;71433.72;;;-143.21;60.76
6464;BME280;3265;42.694;23.282;2023-07-30T02:47:48;71437.69;;;-143.21;60.76
6464;BME280;3265;42.694;23.282;2023-07-30T02:50:15;71441.63;;;-143.21;60.97
6464;BME280;3265;42.694;23.282;2023-07-30T02:52:42;71451.56;;;-143.21;60.92
6464;BME280;3265;42.694;23.282;2023-07-30T02:55:09;71469.41;;;-143.21;61.31
6464;BME280;3265;42.694;23.282;2023-07-30T02:57:36;71463.44;;;-143.21;61.39
6464;BME280;3265;42.694;23.282;2023-07-30T03:00:03;71477.34;;;-143.21;61.63
6464;BME280;3265;42.694;23.282;2023-07-30T03:02:31;71487.25;;;-143.21;62.02
6464;BME280;3265;42.694;23.282;2023-07-30T03:04:58;71495.19;;;-143.21;62.20
6464;BME280;3265;42.694;23.282;2023-07-30T03:07:25;71487.25;;;-143.21;62.26
6464;BME280;3265;42.694;23.282;2023-07-30T03:09:52;71467.41;;;-143.21;61.72
6464;BME280;3265;42.694;23.282;2023-07-30T03:12:20;71449.56;;;-143.21;61.02
6464;BME280;3265;42.694;23.282;2023-07-30T03:14:47;71435.69;;;-143.21;60.85
6464;BME280;3265;42.694;23.282;2023-07-30T03:17:13;71445.59;;;-143.21;61.09
6464;BME280;3265;42.694;23.282;2023-07-30T03:19:41;71447.59;;;-143.21;61.48
6464;BME280;3265;42.694;23.282;2023-07-30T03:22:08;71449.56;;;-143.21;61.43
6464;BME280;3265;42.694;23.282;2023-07-30T03:24:35;71449.56;;;-143.21;61.49
6464;BME280;3265;42.694;23.282;2023-07-30T03:27:02;71449.56;;;-143.21;61.80
6464;BME280;3265;42.694;23.282;2023-07-30T03:29:29;71449.56;;;-143.21;61.67
6464;BME280;3265;42.694;23.282;2023-07-30T03:31:56;71453.53;;;-143.21;61.67
6464;BME280;3265;42.694;23.282;2023-07-30T03:34:22;71445.59;;;-143.21;61.41
6464;BME280;3265;42.694;23.282;2023-07-30T03:36:51;71441.63;;;-143.21;61.32
6464;BME280;3265;42.694;23.282;2023-07-30T03:39:17;71447.59;;;-143.21;61.59
6464;BME280;3265;42.694;23.282;2023-07-30T03:41:44;71449.56;;;-143.21;61.81
6464;BME280;3265;42.694;23.282;2023-07-30T03:44:11;71449.56;;;-143.21;61.88
6464;BME280;3265;42.694;23.282;2023-07-30T03:46:38;71449.56;;;-143.21;61.80
6464;BME280;3265;42.694;23.282;2023-07-30T03:49:05;71455.53;;;-143.21;61.98
6464;BME280;3265;42.694;23.282;2023-07-30T03:51:32;71471.38;;;-143.21;62.12
6464;BME280;3265;42.694;23.282;2023-07-30T03:54:00;71467.41;;;-143.21;62.20
6464;BME280;3265;42.694;23.282;2023-07-30T03:56:27;71461.47;;;-143.21;61.68
6464;BME280;3265;42.694;23.282;2023-07-30T03:58:54;71461.47;;;-143.21;61.40
6464;BME280;3265;42.694;23.282;2023-07-30T04:01:21;71459.47;;;-143.21;61.60
6464;BME280;3265;42.694;23.282;2023-07-30T04:03:48;71463.44;;;-143.21;61.56
6464;BME280;3265;42.694;23.282;2023-07-30T04:06:14;71467.41;;;-143.21;61.82
6464;BME280;3265;42.694;23.282;2023-07-30T04:08:42;71477.34;;;-143.21;62.00
6464;BME280;3265;42.694;23.282;2023-07-30T04:11:10;71471.38;;;-143.21;62.05
6464;BME280;3265;42.694;23.282;2023-07-30T04:13:37;71483.28;;;-143.21;62.43
6464;BME280;3265;42.694;23.282;2023-07-30T04:16:03;71481.28;;;-143.21;62.69
6464;BME280;3265;42.694;23.282;2023-07-30T04:18:30;71483.28;;;-143.21;62.41
6464;BME280;3265;42.694;23.282;2023-07-30T04:20:57;71475.34;;;-143.21;62.21
6464;BME280;3265;42.694;23.282;2023-07-30T04:23:24;71477.34;;;-143.21;61.82
6464;BME280;3265;42.694;23.282;2023-07-30T04:25:51;71463.44;;;-143.21;61.57
6464;BME280;3265;42.694;23.282;2023-07-30T04:28:19;71461.47;;;-143.21;61.20
6464;BME280;3265;42.694;23.282;2023-07-30T04:30:46;71435.69;;;-143.21;60.35
6464;BME280;3265;42.694;23.282;2023-07-30T04:33:13;71409.91;;;-143.21;58.72
6464;BME280;3265;42.694;23.282;2023-07-30T04:35:42;71380.19;;;-143.21;58.63
6464;BME280;3265;42.694;23.282;2023-07-30T04:38:09;71366.31;;;-143.21;58.09
6464;BME280;3265;42.694;23.282;2023-07-30T04:40:36;71368.28;;;-143.21;57.78
6464;BME280;3265;42.694;23.282;2023-07-30T04:43:03;71378.19;;;-143.21;58.21
6464;BME280;3265;42.694;23.282;2023-07-30T04:45:31;71374.22;;;-143.21;58.01
6464;BME280;3265;42.694;23.282;2023-07-30T04:47:57;71374.22;;;-143.21;58.15
6464;BME280;3265;42.694;23.282;2023-07-30T04:50:24;71382.16;;;-143.21;58.15
6464;BME280;3265;42.694;23.282;2023-07-30T04:52:51;71380.19;;;-143.21;58.26
6464;BME280;3265;42.694;23.282;2023-07-30T04:55:18;71388.09;;;-143.21;57.87
6464;BME280;3265;42.694;23.282;2023-07-30T04:57:45;71388.09;;;-143.21;58.03
6464;BME280;3265;42.694;23.282;2023-07-30T05:00:12;71398.03;;;-143.21;58.73
6464;BME280;3265;42.694;23.282;2023-07-30T05:02:40;71394.06;;;-143.21;58.97
6464;BME280;3265;42.694;23.282;2023-07-30T05:05:08;71394.06;;;-143.21;59.38
6464;BME280;3265;42.694;23.282;2023-07-30T05:07:34;71400.00;;;-143.21;59.89
6464;BME280;3265;42.694;23.282;2023-07-30T05:10:02;71392.06;;;-143.21;59.93
6464;BME280;3265;42.694;23.282;2023-07-30T05:12:31;71390.09;;;-143.21;60.02
6464;BME280;3265;42.694;23.282;2023-07-30T05:14:58;71376.22;;;-143.21;59.35
6464;BME280;3265;42.694;23.282;2023-07-30T05:17:25;71366.31;;;-143.21;59.02
6464;BME280;3265;42.694;23.282;2023-07-30T05:19:53;71354.41;;;-143.21;58.64
6464;BME280;3265;42.694;23.282;2023-07-30T05:22:20;71320.69;;;-143.21;57.95
6464;BME280;3265;42.694;23.282;2023-07-30T05:24:47;71300.88;;;-143.21;57.51
6464;BME280;3265;42.694;23.282;2023-07-30T05:27:13;71288.97;;;-143.21;56.95
6464;BME280;3265;42.694;23.282;2023-07-30T05:29:40;71281.06;;;-143.21;57.11
6464;BME280;3265;42.694;23.282;2023-07-30T05:32:08;71281.06;;;-143.21;56.70
6464;BME280;3265;42.694;23.282;2023-07-30T05:34:35;71287.00;;;-143.21;56.92
6464;BME280;3265;42.694;23.282;2023-07-30T05:37:03;71296.91;;;-143.21;57.20
6464;BME280;3265;42.694;23.282;2023-07-30T05:39:29;71287.00;;;-143.21;57.13
6464;BME280;3265;42.694;23.282;2023-07-30T05:41:56;71273.13;;;-143.21;56.40
6464;BME280;3265;42.694;23.282;2023-07-30T05:44:22;71265.19;;;-143.21;56.66
6464;BME280;3265;42.694;23.282;2023-07-30T05:46:49;71261.22;;;-143.21;55.88
6464;BME280;3265;42.694;23.282;2023-07-30T05:49:16;71271.13;;;-143.21;55.93
6464;BME280;3265;42.694;23.282;2023-07-30T05:51:43;71277.09;;;-143.21;55.96
6464;BME280;3265;42.694;23.282;2023-07-30T05:54:12;71288.97;;;-143.21;56.50
6464;BME280;3265;42.694;23.282;2023-07-30T05:56:39;71285.03;;;-143.21;56.73
6464;BME280;3265;42.694;23.282;2023-07-30T05:59:05;71279.06;;;-143.21;55.84
6464;BME280;3265;42.694;23.282;2023-07-30T06:01:32;71281.06;;;-143.21;56.37
6464;BME280;3265;42.694;23.282;2023-07-30T06:04:00;71277.09;;;-143.21;57.02
6464;BME280;3265;42.694;23.282;2023-07-30T06:06:28;71261.22;;;-143.21;56.40
6464;BME280;3265;42.694;23.282;2023-07-30T06:08:55;71249.34;;;-143.21;55.29
6464;BME280;3265;42.694;23.282;2023-07-30T06:11:25;71239.41;;;-143.21;55.18
6464;BME280;3265;42.694;23.282;2023-07-30T06:13:52;71227.53;;;-143.21;54.95
6464;BME280;3265;42.694;23.282;2023-07-30T06:16:19;71219.59;;;-143.21;54.53
6464;BME280;3265;42.694;23.282;2023-07-30T06:18:46;71185.88;;;-143.21;53.51
6464;BME280;3265;42.694;23.282;2023-07-30T06:21:13;71154.16;;;-143.21;52.45
6464;BME280;3265;42.694;23.282;2023-07-30T06:23:42;71132.38;;;-143.21;50.98
6464;BME280;3265;42.694;23.282;2023-07-30T06:26:08;71126.41;;;-143.21;50.83
6464;BME280;3265;42.694;23.282;2023-07-30T06:28:37;71134.34;;;-143.21;50.42
6464;BME280;3265;42.694;23.282;2023-07-30T06:31:04;71134.34;;;-143.21;50.54
6464;BME280;3265;42.694;23.282;2023-07-30T06:33:30;71114.53;;;-143.21;50.49
6464;BME280;3265;42.694;23.282;2023-07-30T06:35:57;71112.53;;;-143.21;51.01
6464;BME280;3265;42.694;23.282;2023-07-30T06:38:24;71106.59;;;-143.21;50.89
6464;BME280;3265;42.694;23.282;2023-07-30T06:40:51;71096.69;;;-143.21;50.83
6464;BME280;3265;42.694;23.282;2023-07-30T06:43:18;71086.75;;;-143.21;50.10
6464;BME280;3265;42.694;23.282;2023-07-30T06:45:46;71082.81;;;-143.21;50.18
6464;BME280;3265;42.694;23.282;2023-07-30T06:48:12;71070.91;;;-143.21;50.33
6464;BME280;3265;42.694;23.282;2023-07-30T06:50:41;71057.03;;;-143.21;50.39
6464;BME280;3265;42.694;23.282;2023-07-30T06:53:07;71031.25;;;-143.21;49.76
6464;BME280;3265;42.694;23.282;2023-07-30T06:55:34;71023.34;;;-143.21;49.83
6464;BME280;3265;42.694;23.282;2023-07-30T06:58:01;70995.56;;;-143.21;49.66
6464;BME280;3265;42.694;23.282;2023-07-30T07:00:28;70987.66;;;-143.21;49.44
6464;BME280;3265;42.694;23.282;2023-07-30T07:02:56;70973.78;;;-143.21;48.95
6464;BME280;3265;42.694;23.282;2023-07-30T07:05:23;70967.81;;;-143.21;48.82
6464;BME280;3265;42.694;23.282;2023-07-30T07:07:49;70967.81;;;-143.21;48.90
6464;BME280;3265;42.694;23.282;2023-07-30T07:10:16;70969.81;;;-143.21;48.60
6464;BME280;3265;42.694;23.282;2023-07-30T07:12:43;70983.69;;;-143.21;49.18
6464;BME280;3265;42.694;23.282;2023-07-30T07:15:10;70969.81;;;-143.21;48.98
6464;BME280;3265;42.694;23.282;2023-07-30T07:17:37;70967.81;;;-143.21;48.92
6464;BME280;3265;42.694;23.282;2023-07-30T07:20:07;70951.97;;;-143.21;48.92
6464;BME280;3265;42.694;23.282;2023-07-30T07:22:34;70942.06;;;-143.21;48.57
6464;BME280;3265;42.694;23.282;2023-07-30T07:25:00;70940.06;;;-143.21;48.93
6464;BME280;3265;42.694;23.282;2023-07-30T07:27:27;70924.22;;;-143.21;48.60
6464;BME280;3265;42.694;23.282;2023-07-30T07:29:54;70912.31;;;-143.21;48.30
6464;BME280;3265;42.694;23.282;2023-07-30T07:32:21;70900.41;;;-143.21;47.49
6464;BME280;3265;42.694;23.282;2023-07-30T07:34:49;70874.66;;;-143.21;47.09
6464;BME280;3265;42.694;23.282;2023-07-30T07:37:17;70848.88;;;-143.21;46.54
6464;BME280;3265;42.694;23.282;2023-07-30T07:39:44;70833.03;;;-143.21;45.95
6464;BME280;3265;42.694;23.282;2023-07-30T07:42:12;70833.03;;;-143.21;45.75
6464;BME280;3265;42.694;23.282;2023-07-30T07:44:38;70838.97;;;-143.21;44.42
6464;BME280;3265;42.694;23.282;2023-07-30T07:47:05;70852.84;;;-143.21;44.82
6464;BME280;3265;42.694;23.282;2023-07-30T07:49:32;70850.88;;;-143.21;44.74
6464;BME280;3265;42.694;23.282;2023-07-30T07:51:59;70831.03;;;-143.21;45.01
6464;BME280;3265;42.694;23.282;2023-07-30T07:54:27;70825.09;;;-143.21;45.17
6464;BME280;3265;42.694;23.282;2023-07-30T07:56:54;70817.16;;;-143.21;44.14
6464;BME280;3265;42.694;23.282;2023-07-30T07:59:20;70807.25;;;-143.21;44.43
6464;BME280;3265;42.694;23.282;2023-07-30T08:01:47;70793.38;;;-143.21;43.35
6464;BME280;3265;42.694;23.282;2023-07-30T08:04:14;70787.44;;;-143.21;43.41
6464;BME280;3265;42.694;23.282;2023-07-30T08:06:41;70781.50;;;-143.21;43.46
6464;BME280;3265;42.694;23.282;2023-07-30T08:09:08;70771.56;;;-143.21;42.58
6464;BME280;3265;42.694;23.282;2023-07-30T08:11:36;70755.72;;;-143.21;42.83
6464;BME280;3265;42.694;23.282;2023-07-30T08:14:03;70729.94;;;-143.21;42.71
6464;BME280;3265;42.694;23.282;2023-07-30T08:16:30;70704.19;;;-143.21;42.75
6464;BME280;3265;42.694;23.282;2023-07-30T08:18:56;70684.34;;;-143.21;42.68
6464;BME280;3265;42.694;23.282;2023-07-30T08:21:23;70682.38;;;-143.21;42.36
6464;BME280;3265;42.694;23.282;2023-07-30T08:23:50;70680.38;;;-143.21;41.09
6464;BME280;3265;42.694;23.282;2023-07-30T08:26:17;70674.44;;;-143.21;41.47
6464;BME280;3265;42.694;23.282;2023-07-30T08:28:45;70668.50;;;-143.21;41.70
6464;BME280;3265;42.694;23.282;2023-07-30T08:31:12;70660.56;;;-143.21;41.36
6464;BME280;3265;42.694;23.282;2023-07-30T08:33:39;70648.69;;;-143.21;40.96
6464;BME280;3265;42.694;23.282;2023-07-30T08:36:05;70638.75;;;-143.21;41.04
6464;BME280;3265;42.694;23.282;2023-07-30T08:38:32;70630.84;;;-143.21;40.87
6464;BME280;3265;42.694;23.282;2023-07-30T08:40:59;70620.94;;;-143.21;40.94
6464;BME280;3265;42.694;23.282;2023-07-30T08:43:26;70605.06;;;-143.21;40.23
6464;BME280;3265;42.694;23.282;2023-07-30T08:45:54;70603.09;;;-143.21;39.54
6464;BME280;3265;42.694;23.282;2023-07-30T08:48:21;70603.09;;;-143.21;40.01
6464;BME280;3265;42.694;23.282;2023-07-30T08:50:48;70583.25;;;-143.21;40.11
6464;BME280;3265;42.694;23.282;2023-07-30T08:53:16;70559.47;;;-143.21;39.71
6464;BME280;3265;42.694;23.282;2023-07-30T08:55:44;70549.56;;;-143.21;39.21
6464;BME280;3265;42.694;23.282;2023-07-30T08:58:12;70543.63;;;-143.21;39.22
6464;BME280;3265;42.694;23.282;2023-07-30T09:00:40;70531.72;;;-143.21;39.08
6464;BME280;3265;42.694;23.282;2023-07-30T09:03:09;70527.75;;;-143.21;39.31
6464;BME280;3265;42.694;23.282;2023-07-30T09:05:37;70535.69;;;-143.21;39.15
6464;BME280;3265;42.694;23.282;2023-07-30T09:08:05;70549.56;;;-143.21;39.06
6464;BME280;3265;42.694;23.282;2023-07-30T09:10:32;70545.59;;;-143.21;39.16
6464;BME280;3265;42.694;23.282;2023-07-30T09:12:59;70527.75;;;-143.21;38.26
6464;BME280;3265;42.694;23.282;2023-07-30T09:15:32;70503.97;;;-143.21;37.19
6464;BME280;3265;42.694;23.282;2023-07-30T09:17:59;70505.97;;;-143.21;38.03
6464;BME280;3265;42.694;23.282;2023-07-30T09:20:28;70505.97;;;-143.21;38.37
6464;BME280;3265;42.694;23.282;2023-07-30T09:22:56;70490.09;;;-143.21;37.15
6464;BME280;3265;42.694;23.282;2023-07-30T09:25:23;70470.28;;;-143.21;35.51
6464;BME280;3265;42.694;23.282;2023-07-30T09:27:51;70452.44;;;-143.21;35.02
6464;BME280;3265;42.694;23.282;2023-07-30T09:30:22;70420.72;;;-143.21;34.36
6464;BME280;3265;42.694;23.282;2023-07-30T09:32:51;70404.88;;;-143.21;34.85
6464;BME280;3265;42.694;23.282;2023-07-30T09:35:19;70398.94;;;-143.21;34.57
6464;BME280;3265;42.694;23.282;2023-07-30T09:37:48;70379.09;;;-143.21;35.11
6464;BME280;3265;42.694;23.282;2023-07-30T09:40:15;70375.16;;;-143.21;35.25
6464;BME280;3265;42.694;23.282;2023-07-30T09:42:45;70357.31;;;-143.21;34.66
6464;BME280;3265;42.694;23.282;2023-07-30T09:45:21;70339.47;;;-143.21;34.22
6464;BME280;3265;42.694;23.282;2023-07-30T09:47:49;70317.66;;;-143.21;34.32
6464;BME280;3265;42.694;23.282;2023-07-30T09:50:16;70291.91;;;-143.21;33.72
6464;BME280;3265;42.694;23.282;2023-07-30T09:52:43;70293.88;;;-143.21;33.11
6464;BME280;3265;42.694;23.282;2023-07-30T09:55:12;70291.91;;;-143.21;33.55
6464;BME280;3265;42.694;23.282;2023-07-30T09:57:39;70272.09;;;-143.21;33.59
6464;BME280;3265;42.694;23.282;2023-07-30T10:00:07;70248.28;;;-143.21;33.00
6464;BME280;3265;42.694;23.282;2023-07-30T10:02:38;70230.47;;;-143.21;32.88
6464;BME280;3265;42.694;23.282;2023-07-30T10:05:08;70214.59;;;-143.21;33.18
6464;BME280;3265;42.694;23.282;2023-07-30T10:07:38;70204.69;;;-143.21;33.12
6464;BME280;3265;42.694;23.282;2023-07-30T10:10:08;70200.72;;;-143.21;32.20
6464;BME280;3265;42.694;23.282;2023-07-30T10:12:37;70242.34;;;-143.21;32.62
6464;BME280;3265;42.694;23.282;2023-07-30T10:15:07;70236.41;;;-143.21;32.96
6464;BME280;3265;42.694;23.282;2023-07-30T10:17:34;70210.63;;;-143.21;32.73
6464;BME280;3265;42.694;23.282;2023-07-30T10:20:22;70198.75;;;-143.21;32.18
6464;BME280;3265;42.694;23.282;2023-07-30T10:22:53;70149.19;;;-143.21;32.45
6464;BME280;3265;42.694;23.282;2023-07-30T10:25:21;70107.59;;;-143.21;31.61
6464;BME280;3265;42.694;23.282;2023-07-30T10:27:51;70107.59;;;-143.21;31.20
6464;BME280;3265;42.694;23.282;2023-07-30T10:30:19;70139.28;;;-143.21;32.02
6464;BME280;3265;42.694;23.282;2023-07-30T10:33:02;70129.38;;;-143.21;31.59
6464;BME280;3265;42.694;23.282;2023-07-30T10:35:38;70139.28;;;-143.21;31.68
6464;BME280;3265;42.694;23.282;2023-07-30T10:38:22;70135.31;;;-143.21;31.88
6464;BME280;3265;42.694;23.282;2023-07-30T10:41:02;70091.72;;;-143.21;31.36
6464;BME280;3265;42.694;23.282;2023-07-30T10:43:34;70067.94;;;-143.21;31.64
6464;BME280;3265;42.694;23.282;2023-07-30T10:46:01;70069.94;;;-143.21;31.07
6464;BME280;3265;42.694;23.282;2023-07-30T10:48:36;70097.66;;;-143.21;31.04
6464;BME280;3265;42.694;23.282;2023-07-30T10:51:05;70071.91;;;-143.21;32.06
6464;BME280;3265;42.694;23.282;2023-07-30T10:53:32;70028.31;;;-143.21;31.48
6464;BME280;3265;42.694;23.282;2023-07-30T10:56:03;69970.84;;;-143.21;31.11
6464;BME280;3265;42.694;23.282;2023-07-30T10:58:32;69925.25;;;-143.21;30.54
6464;BME280;3265;42.694;23.282;2023-07-30T11:01:02;69893.53;;;-143.21;30.26
6464;BME280;3265;42.694;23.282;2023-07-30T11:03:30;69863.81;;;-143.21;30.01
6464;BME280;3265;42.694;23.282;2023-07-30T11:05:58;69830.13;;;-143.21;29.58
6464;BME280;3265;42.694;23.282;2023-07-30T11:08:35;69796.44;;;-143.21;29.30
6464;BME280;3265;42.694;23.282;2023-07-30T11:11:03;69804.38;;;-143.21;28.63
6464;BME280;3265;42.694;23.282;2023-07-30T11:13:36;69784.56;;;-143.21;28.75
6464;BME280;3265;42.694;23.282;2023-07-30T11:16:04;69780.59;;;-143.21;28.74
6464;BME280;3265;42.694;23.282;2023-07-30T11:18:32;69746.91;;;-143.21;28.60
6464;BME280;3265;42.694;23.282;2023-07-30T11:21:03;69774.66;;;-143.21;28.30
6464;BME280;3265;42.694;23.282;2023-07-30T11:23:30;69764.75;;;-143.21;28.95
6464;BME280;3265;42.694;23.282;2023-07-30T11:25:57;69760.78;;;-143.21;28.68
6464;BME280;3265;42.694;23.282;2023-07-30T11:28:27;69776.63;;;-143.21;28.25
6464;BME280;3265;42.694;23.282;2023-07-30T11:30:58;69766.72;;;-143.21;28.20
6464;BME280;3265;42.694;23.282;2023-07-30T11:33:26;69742.94;;;-143.21;28.73
6464;BME280;3265;42.694;23.282;2023-07-30T11:35:53;69744.91;;;-143.21;28.15
6464;BME280;3265;42.694;23.282;2023-07-30T11:38:23;69778.59;;;-143.21;28.77
6464;BME280;3265;42.694;23.282;2023-07-30T11:40:51;69770.69;;;-143.21;28.67
6464;BME280;3265;42.694;23.282;2023-07-30T11:43:18;69742.94;;;-143.21;28.57
6464;BME280;3265;42.694;23.282;2023-07-30T11:45:45;69705.28;;;-143.21;27.90
6464;BME280;3265;42.694;23.282;2023-07-30T11:48:14;69679.53;;;-143.21;27.95
6464;BME280;3265;42.694;23.282;2023-07-30T11:50:47;69657.72;;;-143.21;27.99
6464;BME280;3265;42.694;23.282;2023-07-30T11:53:14;69653.75;;;-143.21;27.97
6464;BME280;3265;42.694;23.282;2023-07-30T11:55:42;69659.72;;;-143.21;27.90
6464;BME280;3265;42.694;23.282;2023-07-30T11:58:10;69624.03;;;-143.21;27.52
6464;BME280;3265;42.694;23.282;2023-07-30T12:00:38;69606.22;;;-143.21;27.63
6464;BME280;3265;42.694;23.282;2023-07-30T12:03:10;69582.44;;;-143.21;27.52
6464;BME280;3265;42.694;23.282;2023-07-30T12:05:39;69564.59;;;-143.21;27.31
6464;BME280;3265;42.694;23.282;2023-07-30T12:08:13;69590.34;;;-143.21;27.60
6464;BME280;3265;42.694;23.282;2023-07-30T12:10:44;69661.69;;;-143.21;27.84
6464;BME280;3265;42.694;23.282;2023-07-30T12:13:12;69689.44;;;-143.21;27.74
6464;BME280;3265;42.694;23.282;2023-07-30T12:15:39;69675.56;;;-143.21;27.69
6464;BME280;3265;42.694;23.282;2023-07-30T12:18:07;69647.81;;;-143.21;28.08
6464;BME280;3265;42.694;23.282;2023-07-30T12:20:33;69624.03;;;-143.21;27.92
6464;BME280;3265;42.694;23.282;2023-07-30T12:23:02;69578.47;;;-143.21;27.26
6464;BME280;3265;42.694;23.282;2023-07-30T12:25:29;69548.75;;;-143.21;26.74
6464;BME280;3265;42.694;23.282;2023-07-30T12:27:56;69501.19;;;-143.21;26.74
6464;BME280;3265;42.694;23.282;2023-07-30T12:30:23;69471.47;;;-143.21;26.91
6464;BME280;3265;42.694;23.282;2023-07-30T12:32:51;69463.53;;;-143.21;26.42
6464;BME280;3265;42.694;23.282;2023-07-30T12:35:18;69461.56;;;-143.21;26.47
6464;BME280;3265;42.694;23.282;2023-07-30T12:37:45;69499.19;;;-143.21;26.35
6464;BME280;3265;42.694;23.282;2023-07-30T12:40:13;69538.84;;;-143.21;27.62
6464;BME280;3265;42.694;23.282;2023-07-30T12:42:40;69568.56;;;-143.21;27.38
6464;BME280;3265;42.694;23.282;2023-07-30T12:45:07;69608.19;;;-143.21;27.53
6464;BME280;3265;42.694;23.282;2023-07-30T12:47:34;69629.97;;;-143.21;28.55
6464;BME280;3265;42.694;23.282;2023-07-30T12:50:02;69643.84;;;-143.21;27.83
6464;BME280;3265;42.694;23.282;2023-07-30T12:52:30;69647.81;;;-143.21;28.26